createdAt,value
2017-07-28T00:02:03.390Z,6.30
2017-07-28T00:04:29.949Z,6.77
2017-07-28T00:06:57.261Z,7.23
2017-07-28T00:09:23.849Z,8.53
2017-07-28T00:11:50.406Z,8.20
2017-07-28T00:14:17.236Z,7.67
2017-07-28T00:16:44.052Z,8.30
2017-07-28T00:19:11.413Z,8.50
2017-07-28T00:21:37.991Z,8.63
2017-07-28T00:24:04.638Z,9.03
2017-07-28T00:26:31.230Z,9.00
2017-07-28T00:28:57.804Z,8.77
2017-07-28T00:31:24.492Z,9.77
2017-07-28T00:33:51.045Z,9.53
2017-07-28T00:36:17.609Z,8.40
2017-07-28T00:38:44.226Z,9.70
2017-07-28T00:41:10.807Z,9.83
2017-07-28T00:43:37.409Z,10.00
2017-07-28T00:46:04.000Z,9.73
2017-07-28T00:48:30.616Z,9.67
2017-07-28T00:50:57.204Z,10.23
2017-07-28T00:53:23.747Z,10.37
2017-07-28T00:55:50.342Z,9.63
2017-07-28T00:58:16.940Z,9.10
2017-07-28T01:00:43.618Z,9.60
2017-07-28T01:03:10.916Z,9.60
2017-07-28T01:05:37.469Z,9.37
2017-07-28T01:08:04.060Z,8.97
2017-07-28T01:10:30.618Z,10.43
2017-07-28T01:12:57.312Z,8.77
2017-07-28T01:15:24.622Z,8.20
2017-07-28T01:17:51.932Z,8.90
2017-07-28T01:20:18.508Z,8.20
2017-07-28T01:22:45.121Z,8.40
2017-07-28T01:25:12.405Z,8.17
2017-07-28T01:27:39.116Z,9.67
2017-07-28T01:30:05.684Z,8.53
2017-07-28T01:32:33.064Z,9.10
2017-07-28T01:35:01.222Z,8.70
2017-07-28T01:37:27.914Z,7.93
2017-07-28T01:39:54.480Z,8.47
2017-07-28T01:42:21.039Z,8.50
2017-07-28T01:44:47.663Z,8.63
2017-07-28T01:47:14.366Z,9.10
2017-07-28T01:49:40.882Z,8.93
2017-07-28T01:52:07.530Z,7.70
2017-07-28T01:54:34.128Z,8.63
2017-07-28T01:57:00.717Z,8.00
2017-07-28T01:59:27.368Z,7.80
2017-07-28T02:01:53.982Z,7.10
2017-07-28T02:04:21.302Z,7.23
2017-07-28T02:06:47.907Z,6.80
2017-07-28T02:09:14.456Z,6.87
2017-07-28T02:11:41.023Z,6.67
2017-07-28T02:14:07.580Z,6.60
2017-07-28T02:16:34.160Z,6.40
2017-07-28T02:19:00.712Z,6.10
2017-07-28T02:21:27.365Z,6.73
2017-07-28T02:23:53.904Z,6.93
2017-07-28T02:26:20.727Z,5.67
2017-07-28T02:28:47.273Z,5.77
2017-07-28T02:31:13.849Z,6.00
2017-07-28T02:33:40.667Z,5.70
2017-07-28T02:36:07.274Z,5.70
2017-07-28T02:38:34.571Z,4.90
2017-07-28T02:41:01.141Z,5.10
2017-07-28T02:43:27.796Z,5.53
2017-07-28T02:45:54.361Z,4.70
2017-07-28T02:48:20.945Z,5.43
2017-07-28T02:50:47.550Z,4.77
2017-07-28T02:53:14.100Z,5.37
2017-07-28T02:55:40.524Z,4.90
2017-07-28T02:58:07.104Z,5.07
2017-07-28T03:00:33.658Z,4.83
2017-07-28T03:03:00.156Z,4.10
2017-07-28T03:05:26.743Z,4.57
2017-07-28T03:07:54.060Z,3.70
2017-07-28T03:10:20.618Z,4.20
2017-07-28T03:12:47.333Z,4.30
2017-07-28T03:15:13.908Z,3.73
2017-07-28T03:17:40.434Z,4.00
2017-07-28T03:20:08.145Z,4.00
2017-07-28T03:22:35.460Z,4.20
2017-07-28T03:25:02.046Z,3.60
2017-07-28T03:27:29.598Z,3.80
2017-07-28T03:29:56.189Z,4.13
2017-07-28T03:32:22.778Z,3.73
2017-07-28T03:34:49.392Z,4.43
2017-07-28T03:37:15.987Z,4.20
2017-07-28T03:39:42.581Z,4.40
2017-07-28T03:42:09.182Z,3.47
2017-07-28T03:44:36.152Z,3.30
2017-07-28T03:47:03.517Z,4.00
2017-07-28T03:49:30.856Z,3.50
2017-07-28T03:51:58.152Z,3.70
2017-07-28T03:54:27.173Z,4.23
2017-07-28T03:56:53.752Z,3.30
2017-07-28T03:59:20.312Z,3.77
2017-07-28T04:01:47.628Z,3.60
2017-07-28T04:04:14.227Z,4.00
2017-07-28T04:06:40.716Z,3.30
2017-07-28T04:09:07.341Z,3.47
2017-07-28T04:11:33.900Z,4.27
2017-07-28T04:14:00.937Z,3.10
2017-07-28T04:16:27.540Z,3.10
2017-07-28T04:18:54.622Z,3.13
2017-07-28T04:21:21.145Z,3.70
2017-07-28T04:23:48.421Z,3.77
2017-07-28T04:26:14.976Z,3.30
2017-07-28T04:28:41.568Z,3.13
2017-07-28T04:31:08.112Z,3.23
2017-07-28T04:33:34.746Z,3.30
2017-07-28T04:36:01.333Z,2.83
2017-07-28T04:38:27.805Z,3.20
2017-07-28T04:40:54.357Z,3.20
2017-07-28T04:43:20.913Z,2.87
2017-07-28T04:45:47.463Z,3.27
2017-07-28T04:48:14.769Z,3.20
2017-07-28T04:50:41.352Z,2.90
2017-07-28T04:53:07.983Z,3.23
2017-07-28T04:55:34.539Z,3.30
2017-07-28T04:58:01.833Z,3.37
2017-07-28T05:00:28.429Z,3.27
2017-07-28T05:02:55.048Z,4.57
2017-07-28T05:05:21.620Z,3.53
2017-07-28T05:07:48.080Z,3.53
2017-07-28T05:10:14.668Z,2.80
2017-07-28T05:12:41.216Z,2.80
2017-07-28T05:15:07.704Z,3.60
2017-07-28T05:17:34.172Z,4.10
2017-07-28T05:20:00.746Z,3.53
2017-07-28T05:22:27.314Z,4.10
2017-07-28T05:24:53.753Z,2.93
2017-07-28T05:27:20.334Z,3.50
2017-07-28T05:29:46.950Z,3.30
2017-07-28T05:32:14.295Z,3.20
2017-07-28T05:34:41.584Z,3.20
2017-07-28T05:37:08.141Z,4.30
2017-07-28T05:39:35.165Z,3.53
2017-07-28T05:42:01.874Z,3.60
2017-07-28T05:44:28.339Z,3.93
2017-07-28T05:46:54.920Z,3.20
2017-07-28T05:49:21.453Z,3.40
2017-07-28T05:51:54.994Z,3.90
2017-07-28T05:54:21.571Z,3.30
2017-07-28T05:56:48.127Z,3.60
2017-07-28T05:59:14.682Z,3.67
2017-07-28T06:01:41.287Z,3.70
2017-07-28T06:04:08.069Z,3.20
2017-07-28T06:06:35.382Z,3.43
2017-07-28T06:09:02.001Z,3.90
2017-07-28T06:11:28.643Z,4.20
2017-07-28T06:13:55.270Z,4.17
2017-07-28T06:16:21.802Z,3.53
2017-07-28T06:18:48.384Z,3.87
2017-07-28T06:21:14.965Z,3.50
2017-07-28T06:23:41.618Z,3.47
2017-07-28T06:26:08.107Z,3.50
2017-07-28T06:28:34.668Z,3.60
2017-07-28T06:31:01.276Z,3.40
2017-07-28T06:33:28.583Z,3.63
2017-07-28T06:35:55.177Z,3.03
2017-07-28T06:38:21.773Z,4.20
2017-07-28T06:40:49.307Z,3.53
2017-07-28T06:43:15.903Z,3.40
2017-07-28T06:45:42.485Z,4.00
2017-07-28T06:48:09.087Z,3.10
2017-07-28T06:50:35.663Z,3.40
2017-07-28T06:53:02.220Z,3.70
2017-07-28T06:55:28.776Z,3.70
2017-07-28T06:57:56.088Z,4.13
2017-07-28T07:00:23.451Z,3.80
2017-07-28T07:02:50.469Z,3.43
2017-07-28T07:05:17.065Z,3.67
2017-07-28T07:07:44.512Z,3.37
2017-07-28T07:10:11.071Z,3.20
2017-07-28T07:12:37.681Z,3.50
2017-07-28T07:15:04.245Z,4.30
2017-07-28T07:17:30.816Z,6.30
2017-07-28T07:19:57.437Z,3.53
2017-07-28T07:22:24.781Z,4.10
2017-07-28T07:24:51.357Z,4.03
2017-07-28T07:27:18.097Z,3.67
2017-07-28T07:29:44.722Z,3.73
2017-07-28T07:32:11.845Z,3.70
2017-07-28T07:34:41.986Z,3.40
2017-07-28T07:37:08.524Z,3.30
2017-07-28T07:39:35.108Z,3.87
2017-07-28T07:42:01.709Z,3.77
2017-07-28T07:44:28.341Z,3.20
2017-07-28T07:46:54.898Z,3.83
2017-07-28T07:49:25.389Z,3.27
2017-07-28T07:51:52.308Z,3.80
2017-07-28T07:54:19.716Z,4.20
2017-07-28T07:56:46.394Z,3.67
2017-07-28T07:59:12.980Z,4.20
2017-07-28T08:01:39.605Z,3.27
2017-07-28T08:04:06.166Z,3.37
2017-07-28T08:06:32.712Z,4.07
2017-07-28T08:08:59.277Z,4.23
2017-07-28T08:11:25.958Z,3.90
2017-07-28T08:13:52.525Z,3.97
2017-07-28T08:16:19.185Z,3.23
2017-07-28T08:18:46.467Z,4.30
2017-07-28T08:21:15.767Z,3.40
2017-07-28T08:23:42.337Z,3.40
2017-07-28T08:26:08.900Z,3.30
2017-07-28T08:28:35.525Z,3.10
2017-07-28T08:31:02.016Z,3.40
2017-07-28T08:33:28.586Z,3.30
2017-07-28T08:35:55.111Z,3.20
2017-07-28T08:38:21.812Z,2.93
2017-07-28T08:40:48.354Z,3.37
2017-07-28T08:43:14.922Z,3.70
2017-07-28T08:45:41.677Z,3.20
2017-07-28T08:48:08.265Z,3.00
2017-07-28T08:50:35.556Z,2.70
2017-07-28T08:53:02.148Z,2.63
2017-07-28T08:55:29.469Z,3.50
2017-07-28T08:57:56.041Z,2.80
2017-07-28T09:00:23.369Z,3.17
2017-07-28T09:02:50.717Z,3.20
2017-07-28T09:05:17.279Z,2.70
2017-07-28T09:07:43.867Z,3.27
2017-07-28T09:10:10.405Z,2.73
2017-07-28T09:12:40.040Z,2.80
2017-07-28T09:15:06.589Z,2.70
2017-07-28T09:17:33.130Z,3.13
2017-07-28T09:19:59.704Z,2.53
2017-07-28T09:22:26.312Z,2.70
2017-07-28T09:24:52.878Z,3.00
2017-07-28T09:27:19.413Z,2.60
2017-07-28T09:29:49.610Z,3.47
2017-07-28T09:32:16.129Z,2.30
2017-07-28T09:34:42.758Z,2.50
2017-07-28T09:37:10.045Z,2.23
2017-07-28T09:39:36.584Z,2.53
2017-07-28T09:42:03.248Z,2.17
2017-07-28T09:44:29.798Z,2.37
2017-07-28T09:46:59.633Z,2.47
2017-07-28T09:49:26.151Z,2.20
2017-07-28T09:51:52.901Z,2.33
2017-07-28T09:54:19.445Z,1.87
2017-07-28T09:56:45.999Z,2.13
2017-07-28T09:59:12.547Z,3.23
2017-07-28T10:01:39.369Z,2.10
2017-07-28T10:04:08.131Z,2.20
2017-07-28T10:06:35.935Z,2.13
2017-07-28T10:09:02.582Z,1.90
2017-07-28T10:11:29.265Z,2.00
2017-07-28T10:13:56.629Z,1.57
2017-07-28T10:18:56.502Z,2.17
2017-07-28T10:21:23.249Z,2.30
2017-07-28T10:23:49.857Z,1.80
2017-07-28T10:26:16.537Z,2.00
2017-07-28T10:28:44.103Z,1.50
2017-07-28T10:31:13.779Z,1.93
2017-07-28T10:33:40.390Z,2.33
2017-07-28T10:36:08.039Z,1.90
2017-07-28T10:38:36.433Z,1.93
2017-07-28T10:41:03.062Z,1.93
2017-07-28T10:43:36.389Z,2.10
2017-07-28T10:46:03.013Z,2.10
2017-07-28T10:48:29.572Z,1.50
2017-07-28T10:50:56.095Z,2.10
2017-07-28T10:53:22.641Z,1.83
2017-07-28T10:55:49.208Z,2.00
2017-07-28T10:58:17.514Z,2.00
2017-07-28T11:00:44.154Z,2.10
2017-07-28T11:03:10.696Z,2.53
2017-07-28T11:05:37.245Z,2.00
2017-07-28T11:08:04.808Z,2.10
2017-07-28T11:10:31.389Z,1.50
2017-07-28T11:13:01.313Z,2.37
2017-07-28T11:15:27.946Z,2.30
2017-07-28T11:17:54.534Z,2.67
2017-07-28T11:20:21.865Z,2.60
2017-07-28T11:22:48.428Z,2.13
2017-07-28T11:25:14.948Z,1.83
2017-07-28T11:27:41.437Z,1.90
2017-07-28T11:30:14.553Z,2.30
2017-07-28T11:32:41.847Z,1.90
2017-07-28T11:35:08.450Z,2.30
2017-07-28T11:37:36.106Z,2.47
2017-07-28T11:40:02.624Z,2.27
2017-07-28T11:42:36.121Z,2.17
2017-07-28T11:45:02.772Z,2.10
2017-07-28T11:47:29.392Z,1.60
2017-07-28T11:49:55.946Z,1.87
2017-07-28T11:52:22.528Z,2.00
2017-07-28T11:54:49.126Z,2.10
2017-07-28T11:57:22.469Z,2.80
2017-07-28T11:59:48.844Z,2.27
2017-07-28T12:02:15.202Z,1.83
2017-07-28T12:04:41.744Z,2.10
2017-07-28T12:07:08.380Z,2.30
2017-07-28T12:09:34.956Z,1.93
2017-07-28T12:12:01.508Z,1.97
2017-07-28T12:14:29.916Z,3.20
2017-07-28T12:16:56.487Z,1.60
2017-07-28T12:19:23.057Z,2.33
2017-07-28T12:21:50.358Z,1.87
2017-07-28T12:24:16.911Z,2.20
2017-07-28T12:26:43.481Z,2.20
2017-07-28T12:29:13.678Z,1.97
2017-07-28T12:31:40.244Z,1.77
2017-07-28T12:34:06.773Z,2.03
2017-07-28T12:36:34.057Z,3.03
2017-07-28T12:39:00.396Z,2.27
2017-07-28T12:41:26.737Z,1.90
2017-07-28T12:43:56.204Z,1.97
2017-07-28T12:46:22.792Z,1.67
2017-07-28T12:48:49.338Z,1.53
2017-07-28T12:51:15.910Z,2.00
2017-07-28T12:53:42.624Z,1.70
2017-07-28T12:56:09.920Z,2.23
2017-07-28T12:58:36.480Z,2.37
2017-07-28T13:01:03.748Z,2.03
2017-07-28T13:03:30.309Z,1.87
2017-07-28T13:05:56.950Z,2.17
2017-07-28T13:08:24.081Z,2.53
2017-07-28T13:10:50.670Z,2.03
2017-07-28T13:13:17.220Z,2.30
2017-07-28T13:15:45.087Z,1.90
2017-07-28T13:18:11.666Z,1.70
2017-07-28T13:20:38.258Z,1.80
2017-07-28T13:23:04.973Z,2.03
2017-07-28T13:25:32.721Z,2.00
2017-07-28T13:27:59.317Z,1.93
2017-07-28T13:30:26.625Z,2.70
2017-07-28T13:32:53.216Z,2.33
2017-07-28T13:35:19.765Z,1.80
2017-07-28T13:37:46.324Z,2.00
2017-07-28T13:40:13.496Z,1.60
2017-07-28T13:42:40.096Z,1.63
2017-07-28T13:45:06.767Z,2.60
2017-07-28T13:47:33.284Z,2.03
2017-07-28T13:49:59.928Z,1.90
2017-07-28T13:52:26.572Z,1.80
2017-07-28T13:54:53.230Z,1.90
2017-07-28T13:57:19.836Z,1.60
2017-07-28T13:59:46.570Z,2.13
2017-07-28T14:02:13.237Z,1.80
2017-07-28T14:04:39.949Z,1.60
2017-07-28T14:07:06.521Z,2.20
2017-07-28T14:09:33.850Z,1.70
2017-07-28T14:12:01.216Z,1.60
2017-07-28T14:14:27.591Z,2.00
2017-07-28T14:16:54.053Z,2.23
2017-07-28T14:19:20.438Z,1.73
2017-07-28T14:21:46.792Z,2.03
2017-07-28T14:24:13.398Z,2.20
2017-07-28T14:26:39.933Z,1.80
2017-07-28T14:29:06.709Z,1.93
2017-07-28T14:31:33.367Z,1.90
2017-07-28T14:34:01.874Z,2.27
2017-07-28T14:36:28.492Z,1.73
2017-07-28T14:38:55.036Z,2.13
2017-07-28T14:41:21.598Z,2.10
2017-07-28T14:43:48.218Z,2.03
2017-07-28T14:46:14.736Z,2.33
2017-07-28T14:48:41.296Z,1.90
2017-07-28T14:51:07.823Z,1.90
2017-07-28T14:53:34.493Z,2.00
2017-07-28T14:56:01.028Z,1.67
2017-07-28T14:58:28.273Z,2.10
2017-07-28T15:00:54.848Z,1.80
2017-07-28T15:03:22.170Z,2.00
2017-07-28T15:05:51.856Z,1.93
2017-07-28T15:08:18.399Z,1.53
2017-07-28T15:10:45.097Z,1.63
2017-07-28T15:13:11.589Z,2.20
2017-07-28T15:15:38.128Z,2.13
2017-07-28T15:18:04.672Z,1.87
2017-07-28T15:20:31.967Z,1.60
2017-07-28T15:22:58.489Z,2.20
2017-07-28T15:25:25.055Z,1.80
2017-07-28T15:27:51.600Z,1.80
2017-07-28T15:30:18.179Z,1.50
2017-07-28T15:32:44.770Z,1.93
2017-07-28T15:35:14.728Z,1.90
2017-07-28T15:37:41.276Z,1.73
2017-07-28T15:40:07.804Z,2.07
2017-07-28T15:42:34.356Z,1.90
2017-07-28T15:45:00.905Z,1.60
2017-07-28T15:47:28.185Z,1.70
2017-07-28T15:49:56.869Z,1.77
2017-07-28T15:52:24.205Z,2.00
2017-07-28T15:54:51.425Z,1.90
2017-07-28T15:57:17.984Z,1.50
2017-07-28T15:59:44.604Z,1.57
2017-07-28T16:02:11.190Z,1.90
2017-07-28T16:04:41.410Z,1.93
2017-07-28T16:07:07.826Z,2.50
2017-07-28T16:09:34.709Z,2.60
2017-07-28T16:12:01.390Z,2.30
2017-07-28T16:14:27.976Z,1.60
2017-07-28T16:16:54.513Z,1.80
2017-07-28T16:19:26.415Z,2.53
2017-07-28T16:21:52.802Z,1.70
2017-07-28T16:24:19.352Z,1.97
2017-07-28T16:26:45.925Z,1.43
2017-07-28T16:29:12.473Z,2.30
2017-07-28T16:31:39.011Z,1.60
2017-07-28T16:34:05.327Z,2.17
2017-07-28T16:36:38.496Z,1.60
2017-07-28T16:39:04.889Z,1.77
2017-07-28T16:41:31.392Z,1.90
2017-07-28T16:43:57.952Z,1.70
2017-07-28T16:46:24.305Z,1.80
2017-07-28T16:48:50.917Z,1.40
2017-07-28T16:51:22.045Z,1.80
2017-07-28T16:53:48.397Z,1.80
2017-07-28T16:56:14.912Z,1.70
2017-07-28T16:58:42.114Z,1.87
2017-07-28T17:01:09.183Z,2.47
2017-07-28T17:03:36.028Z,1.60
2017-07-28T17:06:02.383Z,1.80
2017-07-28T17:08:28.766Z,2.00
2017-07-28T17:10:55.271Z,2.03
2017-07-28T17:13:21.611Z,1.87
2017-07-28T17:15:49.671Z,2.03
2017-07-28T17:18:16.809Z,2.20
2017-07-28T17:20:43.209Z,2.00
2017-07-28T17:23:09.525Z,2.33
2017-07-28T17:25:36.001Z,1.63
2017-07-28T17:28:02.439Z,2.13
2017-07-28T17:30:28.863Z,1.70
2017-07-28T17:32:55.308Z,2.60
2017-07-28T17:35:21.645Z,2.93
2017-07-28T17:37:47.997Z,2.60
2017-07-28T17:40:14.398Z,1.70
2017-07-28T17:42:40.812Z,2.43
2017-07-28T17:45:07.152Z,2.27
2017-07-28T17:47:33.498Z,1.77
2017-07-28T17:50:01.340Z,1.90
2017-07-28T17:52:27.726Z,1.80
2017-07-28T17:54:54.096Z,1.80
2017-07-28T17:57:20.438Z,2.77
2017-07-28T17:59:47.509Z,1.80
2017-07-28T18:02:14.109Z,1.73
2017-07-28T18:04:40.682Z,1.93
2017-07-28T18:07:08.027Z,1.77
2017-07-28T18:09:34.624Z,2.00
2017-07-28T18:12:01.235Z,2.07
2017-07-28T18:14:27.872Z,1.80
2017-07-28T18:16:54.448Z,1.90
2017-07-28T18:19:20.992Z,2.63
2017-07-28T18:21:47.657Z,2.10
2017-07-28T18:24:14.208Z,2.13
2017-07-28T18:26:40.789Z,1.63
2017-07-28T18:29:07.451Z,1.90
2017-07-28T18:31:34.070Z,1.80
2017-07-28T18:34:00.625Z,1.93
2017-07-28T18:36:27.192Z,1.77
2017-07-28T18:38:54.451Z,2.13
2017-07-28T18:41:21.044Z,2.30
2017-07-28T18:43:47.630Z,1.80
2017-07-28T18:46:14.186Z,2.47
2017-07-28T18:48:40.733Z,1.53
2017-07-28T18:51:07.300Z,2.07
2017-07-28T18:53:33.846Z,1.90
2017-07-28T18:56:01.250Z,2.10
2017-07-28T18:58:27.841Z,2.27
2017-07-28T19:00:54.397Z,2.27
2017-07-28T19:03:20.985Z,2.07
2017-07-28T19:05:47.709Z,2.03
2017-07-28T19:08:15.700Z,2.20
2017-07-28T19:10:45.615Z,2.47
2017-07-28T19:13:11.941Z,2.50
2017-07-28T19:15:38.337Z,2.20
2017-07-28T19:18:04.704Z,2.10
2017-07-28T19:20:31.027Z,2.00
2017-07-28T19:23:02.343Z,2.60
2017-07-28T19:25:28.963Z,2.17
2017-07-28T19:27:56.243Z,2.30
2017-07-28T19:30:22.617Z,2.43
2017-07-28T19:32:48.923Z,2.10
2017-07-28T19:35:15.742Z,2.13
2017-07-28T19:37:42.044Z,1.90
2017-07-28T19:40:08.344Z,1.97
2017-07-28T19:42:37.784Z,2.17
2017-07-28T19:45:04.347Z,2.13
2017-07-28T19:47:30.776Z,2.23
2017-07-28T19:49:58.089Z,1.97
2017-07-28T19:52:24.415Z,2.03
2017-07-28T19:54:50.848Z,2.43
2017-07-28T19:57:17.359Z,2.63
2017-07-28T19:59:45.128Z,2.30
2017-07-28T20:02:11.765Z,2.00
2017-07-28T20:04:38.364Z,2.43
2017-07-28T20:07:04.912Z,2.23
2017-07-28T20:09:31.477Z,3.10
2017-07-28T20:11:59.024Z,2.63
2017-07-28T20:14:26.068Z,2.30
2017-07-28T20:16:52.814Z,2.13
2017-07-28T20:19:20.500Z,2.20
2017-07-28T20:21:47.833Z,2.17
2017-07-28T20:24:14.508Z,1.90
2017-07-28T20:26:41.745Z,2.60
2017-07-28T20:29:08.334Z,2.30
2017-07-28T20:31:35.217Z,2.73
2017-07-28T20:34:02.008Z,2.40
2017-07-28T20:36:28.590Z,2.50
2017-07-28T20:38:55.448Z,2.23
2017-07-28T20:41:22.085Z,2.43
2017-07-28T20:43:48.644Z,2.37
2017-07-28T20:46:15.222Z,2.73
2017-07-28T20:48:41.833Z,2.60
2017-07-28T20:51:08.386Z,2.80
2017-07-28T20:53:34.939Z,3.10
2017-07-28T20:56:01.624Z,3.13
2017-07-28T20:58:28.493Z,2.70
2017-07-28T21:00:55.060Z,3.10
2017-07-28T21:03:21.779Z,3.47
2017-07-28T21:05:48.506Z,3.10
2017-07-28T21:08:15.083Z,3.50
2017-07-28T21:10:42.455Z,4.10
2017-07-28T21:13:08.912Z,3.30
2017-07-28T21:15:35.678Z,3.60
2017-07-28T21:18:02.348Z,4.20
2017-07-28T21:20:29.489Z,3.97
2017-07-28T21:22:56.554Z,3.50
2017-07-28T21:25:23.237Z,3.53
2017-07-28T21:27:49.768Z,3.90
2017-07-28T21:30:16.421Z,4.00
2017-07-28T21:32:43.129Z,3.70
2017-07-28T21:35:09.768Z,4.53
2017-07-28T21:37:37.143Z,4.57
2017-07-28T21:40:03.940Z,4.00
2017-07-28T21:42:31.008Z,3.77
2017-07-28T21:44:57.957Z,4.07
2017-07-28T21:47:24.511Z,3.80
2017-07-28T21:49:51.408Z,4.80
2017-07-28T21:52:18.445Z,4.40
2017-07-28T21:54:45.914Z,5.37
2017-07-28T21:57:12.908Z,4.80
2017-07-28T21:59:39.460Z,5.20
2017-07-28T22:02:06.052Z,4.20
2017-07-28T22:04:32.589Z,4.80
2017-07-28T22:06:59.240Z,4.23
2017-07-28T22:09:25.963Z,4.97
2017-07-28T22:11:52.630Z,4.73
2017-07-28T22:14:19.167Z,5.57
2017-07-28T22:16:45.733Z,4.70
2017-07-28T22:19:12.316Z,4.63
2017-07-28T22:21:39.614Z,4.80
2017-07-28T22:24:06.246Z,4.97
2017-07-28T22:26:32.764Z,5.30
2017-07-28T22:28:59.360Z,5.03
2017-07-28T22:31:26.041Z,5.67
2017-07-28T22:33:52.624Z,5.60
2017-07-28T22:36:19.247Z,4.83
2017-07-28T22:38:45.980Z,6.10
2017-07-28T22:41:13.143Z,5.30
2017-07-28T22:43:39.865Z,6.37
2017-07-28T22:46:07.227Z,5.77
2017-07-28T22:48:34.522Z,5.87
2017-07-28T22:51:01.084Z,5.00
2017-07-28T22:53:28.056Z,4.83
2017-07-28T22:55:54.585Z,4.63
2017-07-28T22:58:21.186Z,4.87
2017-07-28T23:00:47.816Z,4.83
2017-07-28T23:03:14.402Z,5.17
2017-07-28T23:05:40.963Z,4.80
2017-07-28T23:08:07.558Z,4.87
2017-07-28T23:10:34.140Z,5.00
2017-07-28T23:13:01.546Z,4.93
2017-07-28T23:15:28.570Z,4.97
2017-07-28T23:17:55.125Z,4.53
2017-07-28T23:20:22.441Z,5.37
2017-07-28T23:22:49.019Z,5.13
2017-07-28T23:25:15.545Z,5.53
2017-07-28T23:27:42.111Z,4.70
2017-07-28T23:30:09.334Z,5.63
2017-07-28T23:32:35.714Z,4.43
2017-07-28T23:35:02.067Z,4.50
2017-07-28T23:37:28.418Z,5.20
2017-07-28T23:39:55.023Z,5.10
2017-07-28T23:42:21.364Z,4.60
2017-07-28T23:44:48.616Z,4.87
2017-07-28T23:47:14.945Z,4.80
2017-07-28T23:49:41.283Z,5.37
2017-07-28T23:52:07.918Z,4.50
2017-07-28T23:54:37.701Z,4.60
2017-07-28T23:57:04.301Z,5.33
2017-07-28T23:59:30.877Z,4.70
